Time;durP1;ratioP1;P1;durP2;ratioP2;P2;SDS_P1;SDS_P2;PMS_P1;PMS_P2;Temp;Humidity;BMP_temperature;BMP_pressure;BME280_temperature;BME280_humidity;BME280_pressure;Samples;Min_cycle;Max_cycle;Signal;HPM_P1;HPM_P2
2023/10/16 00:00:45;;;;;;;9.30;6.35;;;6.90;1.00;;;;;;5025417;28;20684;-79
2023/10/16 00:03:14;;;;;;;12.95;6.15;;;6.80;1.00;;;;;;5024550;28;20201;-79
2023/10/16 00:05:45;;;;;;;12.23;6.25;;;6.80;1.00;;;;;;5023880;28;20203;-78
2023/10/16 00:08:12;;;;;;;8.88;5.38;;;6.80;1.00;;;;;;5027206;28;20205;-80
2023/10/16 00:10:38;;;;;;;9.02;5.47;;;6.80;1.00;;;;;;5028447;28;20875;-79
2023/10/16 00:13:04;;;;;;;9.43;5.93;;;6.80;1.00;;;;;;5029782;28;20190;-79
2023/10/16 00:15:39;;;;;;;8.32;5.95;;;6.80;1.00;;;;;;5017772;28;20699;-79
2023/10/16 00:18:13;;;;;;;7.10;5.45;;;6.80;1.00;;;;;;5022522;28;20177;-79
2023/10/16 00:20:40;;;;;;;11.18;6.32;;;6.70;1.00;;;;;;5030308;28;20194;-78
2023/10/16 00:23:10;;;;;;;9.15;6.13;;;6.70;1.00;;;;;;5019909;28;20196;-78
2023/10/16 00:25:38;;;;;;;10.57;5.97;;;6.70;1.00;;;;;;5029573;28;20199;-80
2023/10/16 00:28:05;;;;;;;13.25;6.93;;;6.60;1.00;;;;;;5030069;28;20189;-79
2023/10/16 00:30:31;;;;;;;10.68;7.63;;;6.60;1.00;;;;;;5025566;28;20559;-79
2023/10/16 00:32:58;;;;;;;12.60;6.23;;;6.60;1.00;;;;;;5024855;28;20240;-79
2023/10/16 00:35:24;;;;;;;9.95;7.38;;;6.60;1.00;;;;;;5028573;28;20457;-79
2023/10/16 00:37:50;;;;;;;15.33;6.50;;;6.50;1.00;;;;;;5029649;28;20190;-80
2023/10/16 00:40:31;;;;;;;10.65;6.32;;;6.50;1.00;;;;;;5020508;28;20985;-79
2023/10/16 00:42:56;;;;;;;13.88;6.80;;;6.50;1.00;;;;;;5031158;28;20566;-80
2023/10/16 00:45:22;;;;;;;12.43;6.80;;;6.50;1.00;;;;;;5027981;28;20217;-79
2023/10/16 00:47:47;;;;;;;16.00;7.07;;;6.50;1.00;;;;;;5022277;28;20206;-79
2023/10/16 00:50:14;;;;;;;9.20;6.70;;;6.50;1.00;;;;;;5026902;28;20210;-80
2023/10/16 00:52:42;;;;;;;9.60;6.70;;;6.50;1.00;;;;;;5028127;28;20691;-80
2023/10/16 00:55:11;;;;;;;12.00;7.20;;;6.50;1.00;;;;;;5019343;28;20280;-79
2023/10/16 00:57:39;;;;;;;12.55;7.43;;;6.50;1.00;;;;;;5022392;28;20270;-79
2023/10/16 01:00:12;;;;;;;12.82;7.15;;;6.50;1.00;;;;;;5031548;28;20189;-81
2023/10/16 01:02:40;;;;;;;10.55;7.43;;;6.40;1.00;;;;;;5032637;28;20187;-81
2023/10/16 01:05:07;;;;;;;11.18;6.95;;;6.40;1.00;;;;;;5028223;28;20202;-80
2023/10/16 01:07:36;;;;;;;12.73;7.25;;;6.40;1.00;;;;;;5023378;28;20196;-81
2023/10/16 01:10:10;;;;;;;11.45;8.00;;;6.40;1.00;;;;;;5029258;28;20209;-81
2023/10/16 01:12:36;;;;;;;11.20;8.75;;;6.40;1.00;;;;;;5035142;28;20217;-79
2023/10/16 01:15:04;;;;;;;11.07;7.35;;;6.40;1.00;;;;;;5036497;28;20206;-81
2023/10/16 01:17:30;;;;;;;15.73;7.85;;;6.40;1.00;;;;;;5032356;28;20189;-81
2023/10/16 01:19:56;;;;;;;8.13;7.40;;;6.40;1.00;;;;;;5037863;28;20542;-80
2023/10/16 01:22:22;;;;;;;16.48;9.57;;;6.40;1.00;;;;;;5028475;28;20183;-81
2023/10/16 01:24:48;;;;;;;12.20;8.63;;;6.30;1.00;;;;;;5033082;28;20213;-80
2023/10/16 01:27:26;;;;;;;13.67;8.40;;;6.30;1.00;;;;;;5027014;28;20261;-81
2023/10/16 01:29:57;;;;;;;9.45;7.63;;;6.30;1.00;;;;;;5018382;28;20465;-80
2023/10/16 01:32:22;;;;;;;11.32;7.93;;;6.30;1.00;;;;;;5037194;28;20185;-81
2023/10/16 01:34:48;;;;;;;13.00;8.60;;;6.30;1.00;;;;;;5036145;28;20202;-81
2023/10/16 01:37:17;;;;;;;17.50;9.10;;;6.30;1.00;;;;;;5027239;28;20679;-81
2023/10/16 01:39:49;;;;;;;12.05;8.63;;;6.30;1.00;;;;;;5037634;28;20702;-80
2023/10/16 01:42:18;;;;;;;11.85;8.70;;;6.30;1.00;;;;;;5027449;28;20241;-80
2023/10/16 01:44:45;;;;;;;14.02;9.02;;;6.30;1.00;;;;;;5027825;28;20260;-81
2023/10/16 01:47:15;;;;;;;12.30;9.13;;;6.30;1.00;;;;;;5035831;28;20254;-81
2023/10/16 01:49:41;;;;;;;18.95;9.88;;;6.20;1.00;;;;;;5035348;28;20628;-81
2023/10/16 01:52:10;;;;;;;12.13;8.93;;;6.20;1.00;;;;;;5026723;28;20189;-81
2023/10/16 01:54:39;;;;;;;12.85;8.90;;;6.20;1.00;;;;;;5027291;28;20190;-81
2023/10/16 01:57:12;;;;;;;11.88;9.20;;;6.20;1.00;;;;;;5039720;28;20210;-81
2023/10/16 01:59:43;;;;;;;13.98;7.75;;;6.20;1.00;;;;;;5026130;28;20242;-81
2023/10/16 02:02:09;;;;;;;16.15;9.20;;;6.10;1.00;;;;;;5037660;28;20191;-80
2023/10/16 02:04:37;;;;;;;11.90;9.43;;;6.10;1.00;;;;;;5034847;28;20202;-81
2023/10/16 02:07:02;;;;;;;12.75;9.20;;;6.10;1.00;;;;;;5025550;28;20183;-81
2023/10/16 02:09:31;;;;;;;15.17;9.00;;;6.10;1.00;;;;;;5033315;28;20240;-81
2023/10/16 02:11:59;;;;;;;14.90;9.65;;;6.10;1.00;;;;;;5035693;28;20181;-81
2023/10/16 02:14:26;;;;;;;14.10;9.65;;;6.10;1.00;;;;;;5033580;28;20257;-81
2023/10/16 02:16:51;;;;;;;13.38;9.68;;;6.10;1.00;;;;;;5033379;28;20187;-81
2023/10/16 02:19:17;;;;;;;15.87;9.23;;;6.00;1.00;;;;;;5028602;28;20185;-80
2023/10/16 02:21:44;;;;;;;14.63;9.80;;;6.00;1.00;;;;;;5028488;28;20248;-80
2023/10/16 02:24:11;;;;;;;13.52;8.65;;;6.00;1.00;;;;;;5037962;28;20741;-81
2023/10/16 02:26:55;;;;;;;10.05;8.82;;;6.00;1.00;;;;;;5035957;28;20174;-80
2023/10/16 02:29:24;;;;;;;14.75;9.68;;;6.00;1.00;;;;;;5030458;28;20602;-79
2023/10/16 02:31:52;;;;;;;12.70;9.77;;;6.00;1.00;;;;;;5023907;28;20278;-80
2023/10/16 02:34:22;;;;;;;18.73;9.82;;;6.00;1.00;;;;;;5030151;28;20231;-80
2023/10/16 02:36:51;;;;;;;14.40;9.82;;;6.00;1.00;;;;;;5026375;28;20182;-81
2023/10/16 02:39:35;;;;;;;13.98;9.98;;;6.00;1.00;;;;;;5032385;28;20179;-80
2023/10/16 02:42:06;;;;;;;15.25;8.93;;;5.90;1.00;;;;;;5031646;28;20183;-81
2023/10/16 02:44:38;;;;;;;14.40;9.85;;;5.90;1.00;;;;;;5034160;28;20578;-79
2023/10/16 02:47:19;;;;;;;14.15;9.77;;;5.90;1.00;;;;;;5033137;28;20183;-80
2023/10/16 02:49:47;;;;;;;19.23;11.30;;;5.90;1.00;;;;;;5026022;28;20279;-79
2023/10/16 02:52:17;;;;;;;19.25;10.65;;;5.90;1.00;;;;;;5027638;28;20183;-78
2023/10/16 02:54:44;;;;;;;13.63;10.23;;;5.90;1.00;;;;;;5031747;28;20205;-80
2023/10/16 02:57:14;;;;;;;13.85;10.48;;;5.80;1.00;;;;;;5033742;28;20190;-81
2023/10/16 02:59:42;;;;;;;14.05;9.88;;;5.80;1.00;;;;;;5033617;28;20197;-80
2023/10/16 03:02:17;;;;;;;16.55;11.23;;;5.80;1.00;;;;;;5032451;28;20209;-80
2023/10/16 03:04:44;;;;;;;17.58;10.65;;;5.80;1.00;;;;;;5025033;28;20233;-80
2023/10/16 03:07:09;;;;;;;12.40;10.20;;;5.80;1.00;;;;;;5030640;28;20213;-80
2023/10/16 03:09:35;;;;;;;12.70;9.90;;;5.80;1.00;;;;;;5031255;28;20238;-80
2023/10/16 03:12:04;;;;;;;16.57;10.20;;;5.80;1.00;;;;;;5031617;28;20210;-80
2023/10/16 03:14:44;;;;;;;19.08;11.10;;;5.80;1.00;;;;;;5029266;28;20504;-80
2023/10/16 03:17:18;;;;;;;13.68;11.00;;;5.70;1.00;;;;;;5025515;28;20845;-80
2023/10/16 03:19:48;;;;;;;18.35;10.63;;;5.70;1.00;;;;;;5032869;28;20277;-80
2023/10/16 03:22:14;;;;;;;14.88;10.57;;;5.70;1.00;;;;;;5030983;28;20183;-80
2023/10/16 03:24:39;;;;;;;15.23;11.82;;;5.70;1.00;;;;;;5029309;28;20210;-80
2023/10/16 03:27:08;;;;;;;18.33;11.00;;;5.70;1.00;;;;;;5033251;28;20187;-80
2023/10/16 03:29:34;;;;;;;15.70;10.93;;;5.70;1.00;;;;;;5031427;28;20841;-81
2023/10/16 03:32:01;;;;;;;21.98;12.23;;;5.70;1.00;;;;;;5029899;28;20183;-80
2023/10/16 03:34:26;;;;;;;16.58;10.98;;;5.70;1.00;;;;;;5027301;28;20290;-80
2023/10/16 03:36:59;;;;;;;18.23;12.23;;;5.70;1.00;;;;;;5029681;28;20215;-79
2023/10/16 03:39:25;;;;;;;18.00;10.70;;;5.70;1.00;;;;;;5026672;28;20213;-80
2023/10/16 03:41:51;;;;;;;17.10;11.67;;;5.70;1.00;;;;;;5021711;28;20183;-80
2023/10/16 03:44:18;;;;;;;20.60;11.30;;;5.80;1.00;;;;;;5029388;28;20479;-81
2023/10/16 03:46:48;;;;;;;18.20;10.80;;;5.80;1.00;;;;;;5029439;28;20723;-79
2023/10/16 03:49:14;;;;;;;19.00;10.63;;;5.80;1.00;;;;;;5031515;28;20179;-80
2023/10/16 03:51:40;;;;;;;18.33;11.80;;;5.80;1.00;;;;;;5028791;28;20291;-80
2023/10/16 03:54:06;;;;;;;14.50;11.70;;;5.80;1.00;;;;;;5032428;28;20459;-80
2023/10/16 03:56:31;;;;;;;21.67;10.97;;;5.80;1.00;;;;;;5029645;28;20183;-80
2023/10/16 03:58:57;;;;;;;13.67;9.77;;;5.80;1.00;;;;;;5029518;28;20188;-80
2023/10/16 04:01:27;;;;;;;19.15;10.40;;;5.80;1.00;;;;;;5031653;28;20641;-80
2023/10/16 04:04:03;;;;;;;15.00;10.20;;;5.80;1.00;;;;;;5032110;28;20213;-79
2023/10/16 04:06:30;;;;;;;18.48;10.77;;;5.90;1.00;;;;;;5028020;28;20182;-81
2023/10/16 04:08:58;;;;;;;19.20;10.80;;;5.90;1.00;;;;;;5034909;28;20186;-80
2023/10/16 04:11:24;;;;;;;20.33;11.73;;;5.90;1.00;;;;;;5021120;28;20225;-81
2023/10/16 04:13:52;;;;;;;16.17;11.38;;;5.90;1.00;;;;;;5025892;28;20206;-81
2023/10/16 04:21:45;;;;;;;22.42;11.13;;;5.80;1.00;;;;;;5026659;28;21446;-81
2023/10/16 04:24:30;;;;;;;16.80;10.82;;;5.80;1.00;;;;;;5016006;28;20629;-80
2023/10/16 04:26:57;;;;;;;20.20;10.70;;;5.80;1.00;;;;;;5017824;28;20202;-81
2023/10/16 04:29:28;;;;;;;15.20;10.07;;;5.80;1.00;;;;;;5014344;28;20194;-79
2023/10/16 04:36:53;;;;;;;17.13;10.80;;;5.70;1.00;;;;;;5033768;28;20185;-80
2023/10/16 04:45:24;;;;;;;17.05;10.20;;;5.70;1.00;;;;;;5029356;28;20202;-80
2023/10/16 05:03:35;;;;;;;19.25;11.80;;;5.60;1.00;;;;;;5030766;28;20228;-80
2023/10/16 05:11:24;;;;;;;15.70;10.65;;;5.60;1.00;;;;;;5028528;28;20214;-81
2023/10/16 05:14:19;;;;;;;20.30;12.05;;;5.60;1.00;;;;;;5034282;28;20579;-81
2023/10/16 05:16:53;;;;;;;14.60;10.90;;;5.60;1.00;;;;;;5037193;28;20190;-80
2023/10/16 06:14:10;;;;;;;14.65;10.85;;;6.30;1.00;;;;;;5029340;28;20730;-79
2023/10/16 06:16:38;;;;;;;17.65;10.93;;;6.40;1.00;;;;;;5030522;28;20187;-80
2023/10/16 06:19:17;;;;;;;19.23;13.00;;;6.50;1.00;;;;;;5028015;28;20210;-81
2023/10/16 06:21:46;;;;;;;16.77;12.90;;;6.50;1.00;;;;;;5026049;28;20266;-79
2023/10/16 06:24:26;;;;;;;18.15;13.02;;;6.60;1.00;;;;;;5024134;28;20249;-79
2023/10/16 06:26:56;;;;;;;22.90;16.35;;;6.60;99.90;;;;;;5027841;28;20175;-79
2023/10/16 06:29:24;;;;;;;24.08;14.40;;;6.70;99.90;;;;;;5030218;28;20213;-79
2023/10/16 06:31:53;;;;;;;21.85;13.27;;;6.70;99.90;;;;;;5027035;28;20201;-79
2023/10/16 06:34:21;;;;;;;20.42;12.25;;;6.80;99.90;;;;;;5025160;28;20207;-80
2023/10/16 06:36:47;;;;;;;19.17;11.52;;;7.00;99.90;;;;;;5017885;28;20178;-80
2023/10/16 06:39:35;;;;;;;15.23;10.20;;;7.10;99.90;;;;;;5025917;28;20201;-80
2023/10/16 06:42:02;;;;;;;15.40;9.20;;;7.20;99.90;;;;;;5022095;28;20187;-79
2023/10/16 06:44:28;;;;;;;17.93;10.83;;;7.40;1.00;;;;;;5022482;28;20442;-80
2023/10/16 06:46:58;;;;;;;10.30;7.45;;;7.50;99.90;;;;;;5027451;28;20985;-79
2023/10/16 06:49:27;;;;;;;10.37;7.60;;;7.70;99.90;;;;;;5027504;28;20214;-81
2023/10/16 06:51:56;;;;;;;10.07;6.97;;;7.90;1.00;;;;;;5023369;28;20975;-80
2023/10/16 06:54:25;;;;;;;17.60;8.70;;;8.10;1.00;;;;;;5023143;28;20507;-80
2023/10/16 06:56:51;;;;;;;13.70;8.70;;;8.40;1.00;;;;;;5027640;28;20433;-81
2023/10/16 06:59:17;;;;;;;13.37;9.87;;;8.70;1.00;;;;;;5024886;28;20430;-80
2023/10/16 07:01:46;;;;;;;16.83;8.17;;;8.90;99.90;;;;;;5028063;28;21882;-78
2023/10/16 07:04:19;;;;;;;12.47;9.13;;;9.30;1.00;;;;;;5027277;28;20253;-81
2023/10/16 07:06:47;;;;;;;29.83;27.23;;;9.60;36.60;;;;;;5033323;28;20938;-80
2023/10/16 07:09:12;;;;;;;22.97;20.67;;;10.10;99.90;;;;;;5018190;28;20437;-81
2023/10/16 07:11:42;;;;;;;13.07;8.23;;;10.60;1.00;;;;;;5012308;28;20466;-80
2023/10/16 07:14:17;;;;;;;11.53;7.53;;;10.80;99.90;;;;;;5028259;28;20745;-80
2023/10/16 07:16:43;;;;;;;12.00;6.40;;;11.00;99.90;;;;;;5022125;28;20788;-82
2023/10/16 07:19:16;;;;;;;13.83;6.20;;;11.20;99.90;;;;;;5023305;28;20444;-80
2023/10/16 07:21:48;;;;;;;12.20;6.60;;;11.30;99.90;;;;;;5027275;28;20253;-81
2023/10/16 07:24:16;;;;;;;14.00;7.10;;;11.40;99.90;;;;;;5029810;28;20454;-81
2023/10/16 07:26:44;;;;;;;10.90;6.20;;;11.50;99.90;;;;;;5018048;28;20426;-81
2023/10/16 07:29:12;;;;;;;11.57;5.77;;;11.60;50.50;;;;;;5030535;28;20954;-80
2023/10/16 07:31:37;;;;;;;11.40;5.83;;;11.80;58.90;;;;;;5023683;28;20534;-80
2023/10/16 07:34:04;;;;;;;11.57;6.60;;;12.00;23.30;;;;;;5023829;28;20430;-80
2023/10/16 07:36:30;;;;;;;10.40;6.70;;;12.40;1.00;;;;;;5029460;28;20265;-80
2023/10/16 07:38:57;;;;;;;13.20;8.27;;;13.00;1.00;;;;;;5019716;28;20434;-81
2023/10/16 07:41:23;;;;;;;10.97;6.90;;;13.40;1.00;;;;;;5036299;28;20421;-80
2023/10/16 07:43:56;;;;;;;8.00;6.07;;;13.60;1.00;;;;;;5017351;28;20450;-81
2023/10/16 07:46:30;;;;;;;9.83;6.00;;;14.00;1.00;;;;;;5025288;28;20438;-81
2023/10/16 07:49:18;;;;;;;7.07;5.50;;;14.40;1.00;;;;;;5027519;28;20523;-81
2023/10/16 07:51:47;;;;;;;8.67;6.20;;;14.90;1.00;;;;;;5030551;28;20832;-81
2023/10/16 07:54:13;;;;;;;10.63;5.70;;;16.20;1.00;;;;;;5039203;28;20462;-81
2023/10/16 07:56:38;;;;;;;7.87;5.33;;;17.10;1.00;;;;;;5016407;28;20833;-82
2023/10/16 07:59:08;;;;;;;8.23;5.27;;;17.60;1.00;;;;;;5028902;28;20190;-81
2023/10/16 08:04:06;;;;;;;10.13;5.13;;;19.70;1.00;;;;;;5024267;28;20462;-82
2023/10/16 08:06:41;;;;;;;8.20;4.60;;;21.10;1.00;;;;;;5020280;28;20430;-82
2023/10/16 08:09:29;;;;;;;10.90;5.30;;;23.20;99.90;;;;;;5018130;28;20433;-81
2023/10/16 08:11:59;;;;;;;8.57;4.43;;;24.90;99.90;;;;;;5031353;28;20445;-82
2023/10/16 08:14:25;;;;;;;8.50;4.97;;;27.10;99.90;;;;;;5024889;28;20508;-82
2023/10/16 08:16:58;;;;;;;6.97;4.90;;;28.20;99.90;;;;;;5025471;28;20439;-79
2023/10/16 08:19:31;;;;;;;8.17;5.60;;;28.50;99.90;;;;;;5029800;28;21032;-80
2023/10/16 08:21:57;;;;;;;8.23;7.17;;;28.70;99.90;;;;;;5024005;28;20437;-80
2023/10/16 08:24:24;;;;;;;9.03;5.93;;;28.70;99.90;;;;;;5034264;28;20489;-80
2023/10/16 08:26:50;;;;;;;14.30;6.00;;;28.10;99.90;;;;;;5029163;28;20189;-80
2023/10/16 08:31:45;;;;;;;7.53;5.40;;;28.40;99.90;;;;;;5022910;28;21279;-80
2023/10/16 08:34:13;;;;;;;6.80;5.47;;;28.90;99.90;;;;;;5028415;28;20464;-80
2023/10/16 08:36:38;;;;;;;7.40;5.70;;;29.30;99.90;;;;;;5022594;28;20480;-79
2023/10/16 08:39:08;;;;;;;12.17;6.93;;;28.20;99.90;;;;;;5023247;28;20528;-79
2023/10/16 08:41:51;;;;;;;10.73;6.93;;;27.90;99.90;;;;;;5012139;28;20181;-80
2023/10/16 08:44:18;;;;;;;10.43;5.43;;;27.90;99.90;;;;;;5022556;28;20470;-79
2023/10/16 08:46:53;;;;;;;8.13;5.70;;;27.70;99.90;;;;;;5021264;28;20944;-80
2023/10/16 08:49:23;;;;;;;9.03;5.90;;;28.00;99.90;;;;;;5022877;28;20491;-79
2023/10/16 08:51:54;;;;;;;6.40;5.40;;;27.00;99.90;;;;;;5014339;28;20432;-80
2023/10/16 08:57:07;;;;;;;8.57;5.80;;;28.40;99.90;;;;;;5025109;28;20553;-81
2023/10/16 08:59:34;;;;;;;11.27;6.43;;;29.50;99.90;;;;;;5013556;28;20509;-80
2023/10/16 09:02:01;;;;;;;8.80;6.10;;;30.70;99.90;;;;;;5027782;28;20437;-80
2023/10/16 09:04:27;;;;;;;10.60;5.70;;;31.00;99.90;;;;;;5022120;28;20471;-80
2023/10/16 09:06:53;;;;;;;6.97;5.90;;;31.40;99.90;;;;;;5023942;28;21036;-81
2023/10/16 09:09:20;;;;;;;7.20;5.43;;;31.30;99.90;;;;;;5025274;28;20513;-82
2023/10/16 09:11:50;;;;;;;9.30;5.50;;;31.60;99.90;;;;;;5019148;28;20187;-81
2023/10/16 09:14:17;;;;;;;7.80;5.03;;;31.20;99.90;;;;;;5017291;28;20460;-81
2023/10/16 09:16:51;;;;;;;13.67;5.67;;;31.30;99.90;;;;;;5026293;28;20531;-82
2023/10/16 09:19:18;;;;;;;7.63;5.20;;;32.40;99.90;;;;;;5020654;28;20438;-81
2023/10/16 09:21:44;;;;;;;11.90;5.73;;;32.10;99.90;;;;;;5019021;28;21025;-81
2023/10/16 09:24:12;;;;;;;17.33;7.40;;;32.30;99.90;;;;;;5016470;28;20473;-81
2023/10/16 09:26:44;;;;;;;8.63;5.77;;;31.50;99.90;;;;;;5025216;28;20438;-80
2023/10/16 09:29:14;;;;;;;7.27;5.40;;;31.40;99.90;;;;;;5018339;28;20442;-81
2023/10/16 09:31:47;;;;;;;9.67;6.40;;;31.70;99.90;;;;;;5036456;28;20446;-82
2023/10/16 09:34:17;;;;;;;11.33;5.83;;;31.70;99.90;;;;;;5019281;28;20453;-82
2023/10/16 09:36:46;;;;;;;8.57;6.17;;;30.60;99.90;;;;;;5031824;28;20446;-82
2023/10/16 09:39:18;;;;;;;7.17;5.80;;;30.50;99.90;;;;;;5028245;28;20456;-82
2023/10/16 09:41:47;;;;;;;8.50;5.70;;;31.20;99.90;;;;;;5016955;28;20466;-80
2023/10/16 09:44:22;;;;;;;8.90;4.73;;;32.70;99.90;;;;;;5014629;28;20985;-80
2023/10/16 09:46:52;;;;;;;7.63;5.37;;;33.50;99.90;;;;;;5035464;28;20424;-80
2023/10/16 09:49:23;;;;;;;6.57;5.40;;;33.90;99.90;;;;;;5018828;28;20410;-80
2023/10/16 09:51:50;;;;;;;10.03;5.50;;;34.40;99.90;;;;;;5046400;28;20442;-81
2023/10/16 09:54:16;;;;;;;11.40;5.90;;;34.10;99.90;;;;;;5034828;28;20452;-80
2023/10/16 09:56:48;;;;;;;9.20;5.80;;;32.30;99.90;;;;;;5035285;28;20506;-80
2023/10/16 09:59:22;;;;;;;8.73;4.67;;;30.90;99.90;;;;;;5032641;28;20186;-79
2023/10/16 10:01:51;;;;;;;9.27;6.10;;;30.70;99.90;;;;;;5025870;28;20528;-80
2023/10/16 10:04:19;;;;;;;9.50;8.57;;;31.00;99.90;;;;;;5032260;28;20444;-80
2023/10/16 10:06:53;;;;;;;10.17;5.07;;;31.50;99.90;;;;;;5026073;28;20434;-80
2023/10/16 10:09:22;;;;;;;10.37;6.03;;;31.80;99.90;;;;;;5030587;28;20414;-82
2023/10/16 10:12:14;;;;;;;8.23;5.80;;;30.50;99.90;;;;;;5024112;28;20500;-82
2023/10/16 10:15:12;;;;;;;9.07;6.17;;;29.60;99.90;;;;;;5018891;28;20468;-81
2023/10/16 10:17:40;;;;;;;10.23;6.67;;;29.30;99.90;;;;;;5028686;28;20425;-82
2023/10/16 10:20:16;;;;;;;10.03;7.47;;;29.30;99.90;;;;;;5024820;28;20500;-82
2023/10/16 10:22:44;;;;;;;8.57;4.30;;;29.70;99.90;;;;;;5017940;28;20425;-81
2023/10/16 10:25:22;;;;;;;5.10;4.60;;;30.50;99.90;;;;;;5027778;28;20882;-81
2023/10/16 10:27:48;;;;;;;9.93;5.80;;;30.50;99.90;;;;;;5030173;28;20424;-82
2023/10/16 10:30:38;;;;;;;7.60;5.57;;;29.00;99.90;;;;;;5027827;28;20572;-80
2023/10/16 10:33:11;;;;;;;10.97;5.30;;;28.90;99.90;;;;;;5026671;28;20448;-80
2023/10/16 10:35:39;;;;;;;8.80;5.10;;;28.50;99.90;;;;;;5020001;28;20572;-81
2023/10/16 10:38:20;;;;;;;9.77;5.53;;;27.80;99.90;;;;;;5023415;28;20917;-82
2023/10/16 10:41:04;;;;;;;8.70;5.13;;;27.40;99.90;;;;;;5031166;28;20466;-81
2023/10/16 10:43:48;;;;;;;6.90;4.33;;;27.20;99.90;;;;;;5022903;28;20824;-81
2023/10/16 10:46:27;;;;;;;7.20;5.00;;;27.00;99.90;;;;;;5027327;28;20471;-81
2023/10/16 10:48:54;;;;;;;7.67;4.27;;;27.00;99.90;;;;;;5029516;28;20440;-80
2023/10/16 10:51:21;;;;;;;8.37;4.70;;;26.70;99.90;;;;;;5033688;28;20439;-80
2023/10/16 10:53:54;;;;;;;7.03;4.33;;;26.20;99.90;;;;;;5032002;28;20514;-80
2023/10/16 10:56:20;;;;;;;9.47;4.70;;;26.80;99.90;;;;;;5029662;28;20814;-82
2023/10/16 10:58:47;;;;;;;5.30;4.10;;;26.00;99.90;;;;;;5028549;28;20450;-81
2023/10/16 11:01:16;;;;;;;5.40;4.10;;;24.90;99.90;;;;;;5025588;28;20469;-82
2023/10/16 11:03:45;;;;;;;9.70;4.37;;;25.90;99.90;;;;;;5029108;28;20463;-82
2023/10/16 11:06:18;;;;;;;5.67;4.23;;;25.70;99.90;;;;;;5027338;28;20821;-81
2023/10/16 11:08:51;;;;;;;6.60;3.70;;;26.40;99.90;;;;;;5031269;28;20440;-81
2023/10/16 11:11:17;;;;;;;6.03;3.90;;;26.70;99.90;;;;;;5021788;28;20427;-81
2023/10/16 11:13:49;;;;;;;8.80;3.60;;;26.00;99.90;;;;;;5023021;28;20453;-82
2023/10/16 11:16:15;;;;;;;6.67;3.50;;;26.40;99.90;;;;;;5020807;28;20271;-82
2023/10/16 11:18:57;;;;;;;6.10;3.60;;;25.90;99.90;;;;;;5020938;28;21001;-81
2023/10/16 11:21:25;;;;;;;7.97;3.50;;;26.60;99.90;;;;;;5028024;28;20550;-81
2023/10/16 11:23:55;;;;;;;5.90;3.27;;;26.80;99.90;;;;;;5027482;28;20807;-81
2023/10/16 11:26:27;;;;;;;10.20;3.30;;;26.40;99.90;;;;;;5024261;28;20438;-79
2023/10/16 11:28:54;;;;;;;5.20;2.90;;;26.40;99.90;;;;;;5021078;28;20450;-80
2023/10/16 11:31:21;;;;;;;4.93;2.70;;;26.50;99.90;;;;;;5018734;28;20438;-79
2023/10/16 11:34:00;;;;;;;7.87;3.10;;;26.90;99.90;;;;;;5029919;28;20469;-79
2023/10/16 11:36:27;;;;;;;6.00;2.67;;;26.80;99.90;;;;;;5026659;28;20440;-79
2023/10/16 11:38:59;;;;;;;10.50;2.73;;;26.00;99.90;;;;;;5025228;28;20443;-80
2023/10/16 11:41:26;;;;;;;6.00;2.60;;;25.90;99.90;;;;;;5013114;28;20468;-79
2023/10/16 11:43:53;;;;;;;10.63;3.53;;;25.80;99.90;;;;;;5024379;28;20460;-80
2023/10/16 11:46:28;;;;;;;8.63;3.43;;;25.00;99.90;;;;;;5015820;28;20434;-80
2023/10/16 11:51:39;;;;;;;6.50;2.50;;;24.50;99.90;;;;;;5028775;28;20442;-79
2023/10/16 11:54:10;;;;;;;6.63;2.70;;;24.30;99.90;;;;;;5023033;28;20454;-80
2023/10/16 11:56:36;;;;;;;5.87;2.67;;;24.90;99.90;;;;;;5020972;28;20261;-80
2023/10/16 11:59:03;;;;;;;4.87;2.67;;;24.30;99.90;;;;;;5018301;28;20434;-79
2023/10/16 12:04:06;;;;;;;4.80;2.80;;;23.80;68.20;;;;;;5091282;28;20923;-80
2023/10/16 12:06:33;;;;;;;8.23;2.67;;;23.70;83.80;;;;;;5064335;28;20442;-81
2023/10/16 12:08:59;;;;;;;5.70;2.60;;;23.60;82.60;;;;;;5055420;28;20566;-80
2023/10/16 12:11:24;;;;;;;7.50;2.80;;;23.40;82.70;;;;;;5069505;28;20964;-80
2023/10/16 12:13:51;;;;;;;5.87;3.30;;;23.40;85.20;;;;;;5062346;28;20467;-80
2023/10/16 12:16:24;;;;;;;7.63;3.63;;;23.80;87.00;;;;;;5063335;28;20212;-79
2023/10/16 12:18:51;;;;;;;7.43;3.70;;;24.20;88.50;;;;;;5069088;28;20795;-80
2023/10/16 12:21:17;;;;;;;6.10;2.70;;;24.20;90.00;;;;;;5054444;28;20854;-79
2023/10/16 12:23:43;;;;;;;7.17;3.00;;;24.20;89.90;;;;;;5077973;28;20462;-80
2023/10/16 12:26:09;;;;;;;7.13;2.70;;;24.30;91.00;;;;;;5060529;28;20673;-80
2023/10/16 12:28:35;;;;;;;7.90;2.57;;;24.10;90.20;;;;;;5068982;28;20432;-80
2023/10/16 12:31:02;;;;;;;7.43;3.10;;;23.80;89.90;;;;;;5056966;28;20235;-80
2023/10/16 12:33:30;;;;;;;7.00;3.00;;;23.70;89.30;;;;;;5062652;28;20180;-79
2023/10/16 12:35:56;;;;;;;4.70;2.63;;;23.80;90.50;;;;;;5062816;28;20441;-80
2023/10/16 12:38:23;;;;;;;6.23;2.80;;;23.50;89.60;;;;;;5066611;28;20432;-81
2023/10/16 12:40:53;;;;;;;7.23;3.83;;;22.90;87.60;;;;;;5074027;28;20211;-81
2023/10/16 12:43:20;;;;;;;7.77;3.23;;;22.10;84.90;;;;;;5070166;28;20526;-80
2023/10/16 12:45:45;;;;;;;7.13;3.30;;;22.00;86.40;;;;;;5067147;28;20451;-81
2023/10/16 12:48:11;;;;;;;4.77;2.70;;;22.10;88.50;;;;;;5064044;28;20451;-80
2023/10/16 12:50:37;;;;;;;7.47;3.53;;;22.10;89.30;;;;;;5063910;28;20204;-80
2023/10/16 12:53:03;;;;;;;14.03;3.17;;;22.20;90.30;;;;;;5065541;28;20209;-80
2023/10/16 12:55:29;;;;;;;8.90;3.63;;;21.60;90.90;;;;;;5070951;28;20490;-81
2023/10/16 12:57:54;;;;;;;10.57;3.70;;;21.40;90.30;;;;;;5069447;28;20186;-81
2023/10/16 13:00:22;;;;;;;11.10;3.53;;;21.50;91.00;;;;;;5065322;28;20670;-80
2023/10/16 13:02:49;;;;;;;11.97;3.97;;;21.20;90.90;;;;;;5070250;28;20561;-80
2023/10/16 13:05:15;;;;;;;13.57;4.00;;;21.00;91.60;;;;;;5069439;28;20975;-81
2023/10/16 13:07:42;;;;;;;9.20;3.53;;;20.60;91.40;;;;;;5066147;28;20533;-81
2023/10/16 13:10:17;;;;;;;7.37;3.53;;;20.40;91.30;;;;;;5062304;28;20427;-80
2023/10/16 13:12:44;;;;;;;7.03;3.17;;;20.50;92.70;;;;;;5060477;28;20451;-80
2023/10/16 13:15:11;;;;;;;7.17;3.17;;;19.80;91.40;;;;;;5049403;28;20460;-79
2023/10/16 13:17:37;;;;;;;14.57;3.70;;;20.10;93.20;;;;;;5049954;28;20442;-81
2023/10/16 13:20:13;;;;;;;7.93;3.33;;;20.10;93.40;;;;;;5050287;28;20444;-80
2023/10/16 13:22:40;;;;;;;9.17;3.87;;;20.10;93.50;;;;;;5041168;28;20475;-79
2023/10/16 13:25:11;;;;;;;9.90;3.43;;;19.70;93.60;;;;;;5053287;28;20476;-81
2023/10/16 13:27:40;;;;;;;10.47;3.77;;;19.50;94.10;;;;;;5039744;28;20467;-80
2023/10/16 13:30:11;;;;;;;9.13;3.70;;;19.10;94.40;;;;;;5057742;28;20417;-80
2023/10/16 13:32:41;;;;;;;7.53;4.40;;;19.40;96.20;;;;;;5058750;28;20807;-81
2023/10/16 13:35:12;;;;;;;8.27;4.03;;;19.20;96.00;;;;;;5051656;28;20436;-80
2023/10/16 13:37:43;;;;;;;9.23;3.23;;;19.40;97.10;;;;;;5060328;28;20452;-80
2023/10/16 13:40:24;;;;;;;14.63;4.67;;;19.70;99.10;;;;;;5051767;28;20432;-79
2023/10/16 13:42:55;;;;;;;10.33;3.73;;;19.20;97.60;;;;;;5048714;28;20448;-80
2023/10/16 13:45:21;;;;;;;8.40;4.27;;;19.10;98.70;;;;;;5058964;28;20508;-81
2023/10/16 13:47:49;;;;;;;7.00;4.03;;;18.90;99.60;;;;;;5057396;28;20424;-80
2023/10/16 13:50:16;;;;;;;7.20;3.60;;;19.00;99.90;;;;;;5056322;28;20420;-80
2023/10/16 13:52:46;;;;;;;6.13;4.40;;;19.20;99.90;;;;;;5053935;28;20471;-78
2023/10/16 13:55:15;;;;;;;10.03;5.00;;;19.40;99.90;;;;;;5060126;28;20444;-80
2023/10/16 13:57:47;;;;;;;7.87;5.23;;;19.10;99.90;;;;;;5047050;28;20494;-80
2023/10/16 14:00:28;;;;;;;14.20;6.17;;;19.30;99.90;;;;;;5053233;28;20420;-81
2023/10/16 14:02:57;;;;;;;10.60;6.40;;;18.80;99.90;;;;;;5052244;28;20470;-81
2023/10/16 14:05:23;;;;;;;9.47;5.50;;;18.60;99.90;;;;;;5074283;28;20435;-80
2023/10/16 14:07:53;;;;;;;7.40;5.57;;;18.60;99.90;;;;;;5057944;28;20436;-80
2023/10/16 14:10:21;;;;;;;11.67;6.17;;;18.50;99.90;;;;;;5056446;28;20409;-81
2023/10/16 14:12:53;;;;;;;11.30;5.80;;;18.10;99.90;;;;;;5053633;28;20970;-79
2023/10/16 14:15:19;;;;;;;9.23;6.03;;;17.90;99.90;;;;;;5059246;28;20556;-80
2023/10/16 14:17:47;;;;;;;9.60;5.20;;;17.50;99.90;;;;;;5056271;28;20555;-80
2023/10/16 14:20:29;;;;;;;13.10;5.70;;;17.40;99.90;;;;;;5064926;28;20439;-80
2023/10/16 14:22:55;;;;;;;13.93;4.80;;;16.90;99.90;;;;;;5050842;28;20460;-81
2023/10/16 14:25:27;;;;;;;10.40;4.47;;;16.90;99.90;;;;;;5059961;28;20463;-81
2023/10/16 14:27:55;;;;;;;10.20;5.00;;;17.00;99.90;;;;;;5062717;28;20178;-80
2023/10/16 14:30:25;;;;;;;9.53;5.23;;;17.00;99.90;;;;;;5065385;28;20907;-81
2023/10/16 14:32:51;;;;;;;12.50;4.50;;;17.00;99.90;;;;;;5057234;28;20415;-80
2023/10/16 14:35:17;;;;;;;9.70;4.43;;;17.00;99.90;;;;;;5067705;28;20454;-80
2023/10/16 14:37:43;;;;;;;10.63;4.57;;;16.80;99.90;;;;;;5068051;28;20638;-80
2023/10/16 14:40:09;;;;;;;10.83;4.23;;;16.80;99.90;;;;;;5052968;28;20670;-79
2023/10/16 14:42:34;;;;;;;6.60;3.67;;;16.50;99.90;;;;;;5060407;28;20513;-79
2023/10/16 14:45:01;;;;;;;8.20;4.47;;;16.60;99.90;;;;;;5043295;28;20468;-79